Time;durP1;ratioP1;P1;durP2;ratioP2;P2;SDS_P1;SDS_P2;PMS_P1;PMS_P2;Temp;Humidity;BMP_temperature;BMP_pressure;BME280_temperature;BME280_humidity;BME280_pressure;Samples;Min_cycle;Max_cycle;Signal;HPM_P1;HPM_P2
2022/09/27 08:02:02;;;;;;;1.77;0.90;;;;;;;8.52;88.02;95168.25;2069612;27;1272241;-67
2022/09/27 08:03:14;;;;;;;2.58;0.88;;;;;;;8.83;85.72;95172.44;2113001;28;20423;-68
2022/09/27 08:04:15;;;;;;;1.50;1.00;;;;;;;8.97;85.53;95174.19;2113147;28;20717;-70
2022/09/27 08:05:17;;;;;;;2.28;1.10;;;;;;;8.69;84.77;95170.69;2110762;28;20201;-69
2022/09/27 08:06:18;;;;;;;2.10;0.90;;;;;;;8.80;85.42;95173.47;2101151;28;20281;-70
2022/09/27 08:07:19;;;;;;;4.93;1.88;;;;;;;8.81;85.30;95169.09;2100191;28;20241;-71
2022/09/27 08:13:11;;;;;;;4.68;1.48;;;;;;;9.37;83.82;95174.31;2100865;27;21014;-69
2022/09/27 08:14:13;;;;;;;4.60;1.42;;;;;;;9.39;82.67;95166.41;2102574;28;20218;-70
2022/09/27 09:07:04;;;;;;;3.00;1.21;;;;;;;8.33;85.38;95205.75;4247795;27;20401;-68
2022/09/27 09:08:23;;;;;;;4.03;1.20;;;;;;;8.47;85.30;95211.00;2067052;28;1298384;-68
2022/09/27 09:09:39;;;;;;;3.65;1.25;;;;;;;8.61;83.88;95219.75;2098231;28;20231;-69
2022/09/27 09:12:51;;;;;;;2.95;1.33;;;;;;;8.62;82.67;95204.03;2111499;28;20487;-68
2022/09/27 09:14:02;;;;;;;3.20;1.50;;;;;;;8.75;81.52;95211.94;2112387;28;20243;-70
2022/09/27 09:15:13;;;;;;;5.00;0.90;;;;;;;8.66;80.28;95213.34;2111862;28;20282;-71
2022/09/27 09:16:27;;;;;;;2.55;0.93;;;;;;;8.81;79.80;95205.53;2105622;28;20739;-73
2022/09/27 09:17:47;;;;;;;2.42;0.70;;;;;;;10.29;76.23;95217.03;2104251;28;20196;-74
2022/09/27 09:19:06;;;;;;;4.00;1.15;;;;;;;11.63;71.56;95195.75;2104411;28;20521;-74
2022/09/27 09:20:32;;;;;;;2.05;1.00;;;;;;;12.56;68.40;95212.56;2104452;28;20788;-71
2022/09/27 09:21:52;;;;;;;7.95;1.55;;;;;;;13.49;63.60;95208.09;2111480;28;20193;-73
2022/09/27 09:23:17;;;;;;;1.85;0.80;;;;;;;13.15;64.20;95143.38;2103637;28;20705;-73
2022/09/27 09:24:39;;;;;;;4.35;1.00;;;;;;;14.23;62.08;95207.41;2106603;28;20291;-73
2022/09/27 09:25:56;;;;;;;7.25;1.10;;;;;;;14.74;61.18;95224.25;2113105;28;20277;-73
2022/09/27 09:27:31;;;;;;;2.40;0.90;;;;;;;14.58;59.46;95219.41;2112678;28;20211;-73
2022/09/27 09:28:41;;;;;;;4.03;1.00;;;;;;;15.14;59.90;95205.09;2113729;28;20282;-73
2022/09/27 09:30:02;;;;;;;3.15;0.80;;;;;;;15.73;58.50;95202.66;2112608;28;20219;-74
2022/09/27 09:31:21;;;;;;;5.32;1.05;;;;;;;14.96;59.01;95206.69;2094097;28;20308;-75
2022/09/27 09:32:26;;;;;;;10.65;2.20;;;;;;;13.96;60.53;95223.63;2096844;28;20204;-74
2022/09/27 09:33:34;;;;;;;4.80;2.30;;;;;;;13.97;59.43;95215.63;2103013;28;20268;-76
2022/09/27 09:34:42;;;;;;;6.30;1.88;;;;;;;14.24;60.03;95206.44;2102912;28;20240;-73
2022/09/27 09:36:00;;;;;;;4.13;0.90;;;;;;;14.34;59.11;95207.34;2094276;28;20235;-76
2022/09/27 09:37:13;;;;;;;2.75;0.90;;;;;;;14.77;59.04;95196.91;2094224;28;20195;-73
2022/09/27 09:38:26;;;;;;;5.68;0.95;;;;;;;14.78;57.89;95195.91;2096409;28;20806;-74
2022/09/27 09:39:35;;;;;;;5.57;1.20;;;;;;;15.49;56.92;95200.34;2103756;28;20246;-73
2022/09/27 09:40:49;;;;;;;3.92;1.13;;;;;;;15.95;55.82;95185.00;2095524;28;20310;-73
2022/09/27 09:42:00;;;;;;;4.28;1.27;;;;;;;15.90;56.82;95193.28;2101365;28;20288;-73
2022/09/27 09:49:38;;;;;;;2.30;1.00;;;;;;;13.32;62.87;95175.31;2108041;28;20175;-73
2022/09/27 09:50:57;;;;;;;4.90;1.17;;;;;;;13.46;62.29;95189.97;2110132;28;20258;-74
2022/09/27 09:52:04;;;;;;;3.22;1.20;;;;;;;14.23;59.34;95181.16;2110279;28;20206;-76
2022/09/27 09:53:27;;;;;;;4.30;1.13;;;;;;;14.89;57.39;95185.31;2114308;28;20741;-75
2022/09/27 09:54:36;;;;;;;9.00;1.30;;;;;;;13.67;60.60;95183.00;2110807;28;20236;-73
2022/09/27 09:55:41;;;;;;;7.10;1.00;;;;;;;13.09;62.15;95177.13;2114635;28;20224;-70
2022/09/27 09:56:52;;;;;;;6.97;3.20;;;;;;;12.58;63.60;95180.06;2110554;28;20225;-68
2022/09/27 09:58:32;;;;;;;3.45;1.00;;;;;;;12.15;65.26;95174.59;2096317;28;20247;-68
2022/09/27 09:59:46;;;;;;;5.60;1.60;;;;;;;11.93;67.21;95168.31;2070556;28;20267;-68
2022/09/27 10:00:50;;;;;;;5.10;1.25;;;;;;;11.52;66.63;95170.38;2072526;28;20306;-68
2022/09/27 10:01:59;;;;;;;6.78;1.50;;;;;;;11.24;68.62;95154.06;2073381;28;20202;-67
2022/09/27 10:03:02;;;;;;;4.60;1.27;;;;;;;11.07;68.82;95168.31;2073283;28;20201;-68
2022/09/27 10:19:31;;;;;;;4.90;1.10;;;;;;;9.69;75.27;95183.59;2094084;27;20558;-68
2022/09/27 10:20:42;;;;;;;6.47;1.77;;;;;;;9.90;75.13;95179.63;2090820;28;20588;-69
2022/09/27 10:21:47;;;;;;;11.55;1.10;;;;;;;10.06;74.83;95174.22;2083013;28;20288;-69
2022/09/27 10:22:54;;;;;;;3.80;1.30;;;;;;;10.03;74.99;95166.63;2081290;28;20197;-70
2022/09/27 10:24:04;;;;;;;8.20;1.35;;;;;;;10.33;74.05;95173.31;2082826;28;20204;-69
2022/09/27 10:25:08;;;;;;;8.77;1.42;;;;;;;10.60;73.94;95162.84;2082525;28;20203;-69
2022/09/27 10:26:18;;;;;;;3.90;1.10;;;;;;;10.76;73.56;95153.94;2081938;28;20242;-69
2022/09/27 10:27:19;;;;;;;5.15;1.50;;;;;;;10.94;73.13;95168.34;2084823;28;20602;-69
2022/09/27 10:28:33;;;;;;;7.13;1.00;;;;;;;11.09;73.65;95168.19;2083627;28;20244;-70
2022/09/27 10:29:37;;;;;;;4.25;1.10;;;;;;;11.10;72.05;95165.47;2087588;28;20200;-69
2022/09/27 10:30:38;;;;;;;4.68;1.42;;;;;;;11.55;70.24;95149.25;2086128;28;20248;-69
2022/09/27 10:31:44;;;;;;;3.47;1.42;;;;;;;11.28;69.70;95152.06;2079428;28;20200;-69
2022/09/27 10:32:50;;;;;;;5.55;1.20;;;;;;;11.01;70.43;95154.84;2081848;28;20196;-68
2022/09/27 10:54:33;;;;;;;3.50;0.93;;;;;;;9.82;74.71;95128.91;2109376;27;21056;-68
2022/09/27 10:55:36;;;;;;;3.15;1.20;;;;;;;10.01;74.90;95157.22;2098499;28;20239;-71
2022/09/27 10:56:38;;;;;;;3.60;1.30;;;;;;;10.08;75.11;95161.06;2093072;28;20326;-68
2022/09/27 10:57:40;;;;;;;6.38;1.60;;;;;;;10.05;75.31;95137.81;2094112;28;20294;-68
2022/09/27 10:58:45;;;;;;;7.57;1.65;;;;;;;10.04;73.41;95151.78;2092213;28;20228;-67
2022/09/27 10:59:54;;;;;;;4.45;1.10;;;;;;;9.76;73.81;95115.34;2090127;28;20761;-67
2022/09/27 11:01:05;;;;;;;4.53;1.20;;;;;;;10.09;74.20;95147.97;2094877;28;20287;-67
2022/09/27 11:20:10;;;;;;;2.50;1.00;;;;;;;9.38;77.37;95136.06;2095002;28;20555;-69
2022/09/27 11:21:46;;;;;;;3.75;1.20;;;;;;;9.42;77.38;95146.19;2083941;28;20296;-67
2022/09/27 11:23:11;;;;;;;2.80;1.15;;;;;;;9.40;76.82;95142.84;2084137;28;20664;-69
2022/09/27 11:24:34;;;;;;;6.68;1.25;;;;;;;9.31;78.31;95149.47;2078249;28;20303;-67
2022/09/27 11:26:16;;;;;;;2.08;1.15;;;;;;;9.44;78.93;95143.50;2075790;28;20205;-69
2022/09/27 11:46:43;;;;;;;3.63;0.90;;;;;;;6.63;92.20;95161.41;2066681;27;1268112;-77
2022/09/27 11:47:49;;;;;;;2.85;0.80;;;;;;;6.77;92.96;95173.66;2112113;28;20346;-78
2022/09/27 12:08:13;;;;;;;1.95;0.65;;;;;;;6.94;93.17;95174.50;2089778;28;20552;-71
2022/09/27 12:09:39;;;;;;;1.30;0.70;;;;;;;7.05;93.78;95155.75;2075460;28;20210;-71
2022/09/27 12:36:00;;;;;;;3.66;0.83;;;;;;;7.05;94.15;95142.78;4206957;27;1220548;-73
2022/09/27 12:49:59;;;;;;;6.80;5.75;;;;;;;7.33;92.83;95103.16;2081542;27;20552;-72
2022/09/27 12:51:08;;;;;;;4.07;3.45;;;;;;;7.60;93.99;95134.50;2114126;27;20318;-72
2022/09/27 13:08:32;;;;;;;1.70;0.80;;;;;;;7.28;92.96;95108.59;2066901;27;1228727;-71
2022/09/27 13:09:39;;;;;;;2.13;0.80;;;;;;;7.53;92.00;95128.00;2106195;28;20207;-72
2022/09/27 13:24:39;;;;;;;2.80;1.27;;;;;;;8.90;85.15;95116.47;2074465;27;1259742;-72
2022/09/27 13:26:02;;;;;;;1.77;1.20;;;;;;;8.92;88.09;95105.97;2090360;28;20228;-74
2022/09/27 13:27:27;;;;;;;1.92;0.90;;;;;;;8.67;90.30;95125.69;2090198;28;20723;-74
2022/09/27 14:11:02;;;;;;;2.63;0.88;;;;;;;8.89;92.85;95129.56;2120943;27;20239;-73
2022/09/27 14:12:17;;;;;;;8.60;1.10;;;;;;;9.12;91.70;95130.75;2079527;27;1252575;-71
2022/09/27 14:13:21;;;;;;;2.22;1.00;;;;;;;9.25;90.99;95125.59;2118660;28;20189;-73
2022/09/27 14:14:26;;;;;;;3.15;0.93;;;;;;;9.22;90.21;95121.41;2121460;27;20280;-74
2022/09/27 14:15:30;;;;;;;2.05;0.90;;;;;;;9.03;88.56;95124.34;2104753;28;20191;-74
2022/09/27 14:25:56;;;;;;;3.95;2.00;;;;;;;8.92;90.23;95117.19;2122307;27;20578;-71
2022/09/27 14:27:26;;;;;;;4.13;2.03;;;;;;;8.92;89.62;95121.56;2123878;27;20257;-72
2022/09/27 14:28:30;;;;;;;3.25;1.30;;;;;;;8.89;88.81;95112.19;2110697;28;20187;-72
2022/09/27 14:41:06;;;;;;;2.28;0.75;;;;;;;11.90;74.61;95103.16;2112246;27;20216;-75
2022/09/27 14:42:25;;;;;;;2.40;1.05;;;;;;;11.86;75.75;95086.00;2121170;27;20260;-76
2022/09/27 14:43:28;;;;;;;1.85;1.00;;;;;;;11.79;77.06;95106.56;2116580;28;20222;-75
2022/09/27 14:44:31;;;;;;;2.05;1.00;;;;;;;11.73;76.95;95089.56;2110202;28;20229;-75
2022/09/27 14:45:36;;;;;;;1.20;0.70;;;;;;;11.33;74.95;95094.25;2109525;27;20232;-74
2022/09/27 14:46:37;;;;;;;2.63;1.23;;;;;;;11.12;75.84;95102.66;2124437;27;20939;-76
2022/09/27 14:47:46;;;;;;;2.38;0.70;;;;;;;11.18;74.43;95102.22;2116192;27;20213;-76
2022/09/27 14:48:49;;;;;;;4.30;0.90;;;;;;;11.14;73.79;95106.00;2110509;28;20266;-74
2022/09/27 14:49:54;;;;;;;1.20;0.70;;;;;;;11.01;72.95;95106.06;2107890;28;20278;-77
2022/09/27 14:51:01;;;;;;;2.83;1.00;;;;;;;11.07;73.87;95096.94;2109696;27;20327;-76
2022/09/27 14:52:16;;;;;;;1.40;0.70;;;;;;;10.95;75.70;95102.09;2117006;28;20952;-76
2022/09/27 14:53:23;;;;;;;2.70;0.85;;;;;;;10.57;75.65;95095.16;2107228;28;20294;-76
2022/09/27 14:54:30;;;;;;;2.72;0.65;;;;;;;10.54;75.83;95113.66;2110512;28;20202;-77
2022/09/27 14:55:33;;;;;;;2.38;0.80;;;;;;;10.62;74.35;95092.25;2106259;27;20336;-75
2022/09/27 14:56:36;;;;;;;2.00;0.80;;;;;;;10.52;76.27;95102.47;2125948;27;20330;-76
2022/09/27 14:57:40;;;;;;;1.55;0.93;;;;;;;10.11;76.33;95101.72;2117800;27;20205;-76
2022/09/27 14:58:44;;;;;;;1.77;0.80;;;;;;;10.15;76.32;95122.41;2108867;28;20234;-76
2022/09/27 14:59:48;;;;;;;2.75;0.80;;;;;;;10.31;76.34;95125.66;2109405;28;20209;-75
2022/09/27 15:00:50;;;;;;;5.07;0.80;;;;;;;10.18;75.63;95136.03;2105135;28;20222;-76
2022/09/27 15:01:56;;;;;;;1.27;0.77;;;;;;;9.99;77.81;95140.81;2115781;28;20274;-76
2022/09/27 15:03:01;;;;;;;2.28;0.80;;;;;;;9.95;79.61;95135.84;2113032;28;20194;-75
2022/09/27 15:04:07;;;;;;;5.55;0.75;;;;;;;9.83;79.68;95136.63;2111818;28;20198;-75
2022/09/27 15:05:20;;;;;;;1.85;0.75;;;;;;;9.60;77.81;95127.72;2098147;28;20202;-76
2022/09/27 15:06:23;;;;;;;1.90;0.80;;;;;;;9.60;79.29;95136.34;2118030;28;20229;-75
2022/09/27 15:07:25;;;;;;;3.13;0.80;;;;;;;9.56;78.01;95134.03;2112745;28;20704;-75
2022/09/27 15:08:34;;;;;;;10.40;0.82;;;;;;;9.45;79.19;95100.88;2100738;28;20646;-76
2022/09/27 15:09:38;;;;;;;2.10;0.90;;;;;;;9.82;78.08;95114.09;2100411;28;20199;-75
2022/09/27 15:10:40;;;;;;;2.50;0.90;;;;;;;10.16;77.75;95117.06;2097256;27;20246;-75
2022/09/27 15:11:46;;;;;;;1.50;0.75;;;;;;;10.68;75.42;95115.31;2113274;28;20228;-75
2022/09/27 15:12:52;;;;;;;1.50;0.77;;;;;;;11.29;74.96;95106.69;2112141;28;20214;-76
2022/09/27 15:13:54;;;;;;;2.10;0.90;;;;;;;11.20;72.95;95108.19;2111399;28;20844;-77
2022/09/27 15:14:57;;;;;;;3.40;1.00;;;;;;;11.00;75.09;95124.47;2111554;28;20684;-76
2022/09/27 15:15:59;;;;;;;4.35;1.50;;;;;;;11.65;74.38;95122.44;2104475;28;20281;-76
2022/09/27 15:17:04;;;;;;;2.97;0.93;;;;;;;11.56;75.13;95137.00;2117797;28;20248;-75
2022/09/27 15:18:42;;;;;;;2.17;0.80;;;;;;;11.25;71.46;95128.78;2101066;28;20198;-75
2022/09/27 15:20:02;;;;;;;10.82;1.10;;;;;;;10.81;72.39;95115.28;2099998;28;20282;-76
2022/09/27 15:21:06;;;;;;;3.65;0.80;;;;;;;11.41;70.64;95128.50;2106611;28;20244;-74
2022/09/27 15:22:35;;;;;;;3.45;0.85;;;;;;;10.80;70.88;95129.28;2116463;28;20724;-75
2022/09/27 15:23:42;;;;;;;2.97;0.90;;;;;;;10.60;73.19;95131.50;2102675;28;20635;-75
2022/09/27 15:24:47;;;;;;;2.00;0.93;;;;;;;10.34;74.19;95124.59;2099939;28;20303;-75
2022/09/27 15:26:22;;;;;;;2.75;1.25;;;;;;;10.13;76.11;95131.16;2105524;27;20287;-73
2022/09/27 15:58:55;;;;;;;2.70;0.90;;;;;;;9.10;75.69;95101.34;2118592;27;20583;-71
2022/09/27 15:59:56;;;;;;;4.20;0.90;;;;;;;9.38;74.23;95091.78;2113629;27;20709;-74
2022/09/27 16:01:06;;;;;;;6.18;1.00;;;;;;;9.84;74.14;95134.84;2090219;28;20274;-74
2022/09/27 16:02:16;;;;;;;5.47;0.82;;;;;;;9.81;74.25;95128.06;2097986;28;20254;-74
2022/09/27 16:03:17;;;;;;;15.77;1.20;;;;;;;9.55;74.49;95111.50;2098310;28;20246;-74
2022/09/27 16:04:19;;;;;;;2.45;0.93;;;;;;;9.27;75.95;95116.75;2098944;28;20199;-74
2022/09/27 16:05:25;;;;;;;3.50;1.10;;;;;;;9.41;75.30;95113.25;2086991;28;20661;-74
2022/09/27 16:06:27;;;;;;;4.32;1.58;;;;;;;9.79;73.95;95141.22;2098358;28;20666;-74
2022/09/27 16:07:29;;;;;;;2.83;1.00;;;;;;;9.93;73.78;95142.09;2093995;28;20843;-74
2022/09/27 16:08:31;;;;;;;3.05;1.25;;;;;;;9.86;73.09;95122.56;2096214;28;20661;-74
2022/09/27 16:09:32;;;;;;;3.22;1.02;;;;;;;10.05;74.17;95136.03;2097492;28;20231;-74
